createdAt,value
2018-06-27T00:00:55.568Z,84.52
2018-06-27T00:03:24.431Z,85.20
2018-06-27T00:05:53.195Z,84.15
2018-06-27T00:08:22.125Z,83.56
2018-06-27T00:10:50.964Z,84.03
2018-06-27T00:13:19.824Z,83.57
2018-06-27T00:15:48.654Z,84.44
2018-06-27T00:18:17.551Z,84.16
2018-06-27T00:20:46.424Z,84.20
2018-06-27T00:23:15.265Z,83.97
2018-06-27T00:25:44.069Z,83.48
2018-06-27T00:28:13.049Z,83.82
2018-06-27T00:30:41.821Z,83.48
2018-06-27T00:33:10.708Z,85.53
2018-06-27T00:35:39.486Z,85.46
2018-06-27T00:38:13.510Z,86.00
2018-06-27T00:40:42.274Z,85.79
2018-06-27T00:43:11.215Z,83.43
2018-06-27T00:45:46.000Z,83.77
2018-06-27T00:48:14.842Z,85.32
2018-06-27T00:50:43.880Z,84.59
2018-06-27T00:53:12.925Z,84.87
2018-06-27T00:55:41.708Z,84.52
2018-06-27T00:58:10.677Z,85.24
2018-06-27T01:00:39.330Z,85.00
2018-06-27T01:03:08.139Z,84.32
2018-06-27T01:05:37.028Z,84.40
2018-06-27T01:08:06.132Z,84.52
2018-06-27T01:10:34.976Z,84.52
2018-06-27T01:13:03.831Z,83.88
2018-06-27T01:15:32.671Z,84.54
2018-06-27T01:18:01.508Z,86.77
2018-06-27T01:20:30.511Z,84.86
2018-06-27T01:22:59.279Z,84.81
2018-06-27T01:25:27.942Z,85.51
2018-06-27T01:27:57.059Z,85.13
2018-06-27T01:30:25.927Z,85.89
2018-06-27T01:32:54.733Z,85.25
2018-06-27T01:35:23.598Z,85.63
2018-06-27T01:37:52.364Z,85.94
2018-06-27T01:40:21.199Z,85.20
2018-06-27T01:42:50.036Z,85.20
2018-06-27T01:45:18.854Z,85.63
2018-06-27T01:47:47.402Z,85.40
2018-06-27T01:50:16.203Z,85.26
2018-06-27T01:52:45.019Z,85.03
2018-06-27T01:55:14.160Z,84.70
2018-06-27T01:57:42.931Z,85.85
2018-06-27T02:00:11.577Z,85.19
2018-06-27T02:02:40.398Z,86.30
2018-06-27T02:05:09.186Z,85.13
2018-06-27T02:07:38.067Z,86.25
2018-06-27T02:10:06.868Z,85.92
2018-06-27T02:12:35.666Z,86.78
2018-06-27T02:15:04.863Z,86.77
2018-06-27T02:17:33.700Z,86.07
2018-06-27T02:20:02.639Z,86.34
2018-06-27T02:22:31.454Z,86.03
2018-06-27T02:25:00.259Z,86.38
2018-06-27T02:27:29.136Z,86.85
2018-06-27T02:29:57.905Z,85.34
2018-06-27T02:32:26.796Z,86.74
2018-06-27T02:34:55.578Z,85.42
2018-06-27T02:37:24.399Z,85.31
2018-06-27T02:39:53.423Z,86.02
2018-06-27T02:42:22.061Z,85.10
2018-06-27T02:44:50.983Z,85.52
2018-06-27T02:47:19.837Z,85.40
2018-06-27T02:49:48.648Z,84.50
2018-06-27T02:52:17.516Z,85.00
2018-06-27T02:54:46.285Z,84.42
2018-06-27T02:57:15.475Z,85.79
2018-06-27T02:59:44.257Z,84.90
2018-06-27T03:02:12.897Z,85.97
2018-06-27T03:04:41.728Z,85.35
2018-06-27T03:07:10.488Z,85.64
2018-06-27T03:09:39.380Z,85.12
2018-06-27T03:12:08.159Z,84.64
2018-06-27T03:14:36.994Z,84.61
2018-06-27T03:17:05.627Z,84.71
2018-06-27T03:19:34.468Z,84.41
2018-06-27T03:22:03.450Z,83.90
2018-06-27T03:24:32.285Z,84.61
2018-06-27T03:27:01.123Z,84.82
2018-06-27T03:29:29.947Z,84.49
2018-06-27T03:31:58.748Z,84.49
2018-06-27T03:34:27.674Z,84.26
2018-06-27T03:36:56.486Z,84.10
2018-06-27T03:39:25.428Z,84.14
2018-06-27T03:41:54.256Z,85.29
2018-06-27T03:44:23.130Z,85.17
2018-06-27T03:46:52.058Z,84.62
2018-06-27T03:49:20.908Z,84.60
2018-06-27T03:51:49.724Z,84.59
2018-06-27T03:54:18.581Z,83.19
2018-06-27T03:56:47.403Z,83.44
2018-06-27T03:59:16.725Z,82.21
2018-06-27T04:01:45.594Z,82.84
2018-06-27T04:04:14.396Z,83.37
2018-06-27T04:06:43.267Z,83.51
2018-06-27T04:09:12.692Z,83.76
2018-06-27T04:11:42.152Z,85.28
2018-06-27T04:14:11.248Z,84.56
2018-06-27T04:16:40.141Z,83.86
2018-06-27T04:19:09.028Z,84.16
2018-06-27T04:21:38.345Z,84.94
2018-06-27T04:24:07.339Z,84.81
2018-06-27T04:26:36.219Z,84.69
2018-06-27T04:29:05.112Z,84.95
2018-06-27T04:31:34.003Z,84.88
2018-06-27T04:34:03.181Z,84.98
2018-06-27T04:36:32.210Z,84.91
2018-06-27T04:39:01.000Z,85.13
2018-06-27T04:41:29.953Z,85.45
2018-06-27T04:43:58.577Z,84.97
2018-06-27T04:46:27.420Z,84.29
2018-06-27T04:48:56.325Z,83.25
2018-06-27T04:51:24.914Z,83.91
2018-06-27T04:53:53.606Z,82.23
2018-06-27T04:56:22.392Z,81.24
2018-06-27T04:58:51.208Z,79.69
2018-06-27T05:01:20.044Z,81.11
2018-06-27T05:03:48.854Z,82.56
2018-06-27T05:06:17.523Z,81.84
2018-06-27T05:08:46.348Z,81.14
2018-06-27T05:11:15.152Z,80.43
2018-06-27T05:13:44.055Z,79.38
2018-06-27T05:16:12.927Z,77.28
2018-06-27T05:18:41.732Z,77.69
2018-06-27T05:21:10.539Z,79.14
2018-06-27T05:23:39.351Z,79.08
2018-06-27T05:26:08.227Z,77.71
2018-06-27T05:28:37.041Z,77.29
2018-06-27T05:31:06.111Z,78.08
2018-06-27T05:33:34.938Z,76.80
2018-06-27T05:36:03.601Z,78.40
2018-06-27T05:38:32.514Z,76.57
2018-06-27T05:41:01.332Z,78.72
2018-06-27T05:43:30.337Z,78.91
2018-06-27T05:45:59.250Z,76.73
2018-06-27T05:48:28.057Z,78.62
2018-06-27T05:50:57.010Z,78.62
2018-06-27T05:53:25.832Z,79.36
2018-06-27T05:55:54.653Z,79.52
2018-06-27T05:58:23.480Z,79.67
2018-06-27T06:00:58.365Z,76.26
2018-06-27T06:03:27.511Z,77.71
2018-06-27T06:05:56.319Z,75.89
2018-06-27T06:08:25.088Z,76.71
2018-06-27T06:10:53.907Z,76.59
2018-06-27T06:13:22.657Z,77.57
2018-06-27T06:15:51.584Z,78.33
2018-06-27T06:18:20.392Z,79.37
2018-06-27T06:20:49.216Z,78.72
2018-06-27T06:23:18.007Z,79.35
2018-06-27T06:25:46.670Z,79.27
2018-06-27T06:28:15.517Z,78.94
2018-06-27T06:30:44.422Z,76.11
2018-06-27T06:33:13.223Z,75.38
2018-06-27T06:35:42.065Z,76.89
2018-06-27T06:38:10.811Z,77.00
2018-06-27T06:40:39.734Z,78.27
2018-06-27T06:43:08.500Z,77.29
2018-06-27T06:45:43.410Z,78.28
2018-06-27T06:48:12.174Z,77.67
2018-06-27T06:50:41.056Z,77.73
2018-06-27T06:53:09.718Z,77.85
2018-06-27T06:55:38.536Z,78.18
2018-06-27T06:58:07.319Z,78.75
2018-06-27T07:00:36.148Z,77.92
2018-06-27T07:03:04.871Z,77.96
2018-06-27T07:05:33.635Z,76.65
2018-06-27T07:08:02.464Z,74.97
2018-06-27T07:10:31.228Z,72.47
2018-06-27T07:13:00.333Z,69.56
2018-06-27T07:15:29.177Z,69.24
2018-06-27T07:17:57.990Z,69.50
2018-06-27T07:20:26.828Z,70.68
2018-06-27T07:22:55.702Z,70.97
2018-06-27T07:25:24.512Z,71.71
2018-06-27T07:27:53.403Z,72.41
2018-06-27T07:30:22.219Z,72.83
2018-06-27T07:32:51.134Z,71.58
2018-06-27T07:35:19.945Z,70.15
2018-06-27T07:37:48.837Z,70.48
2018-06-27T07:40:17.772Z,69.85
2018-06-27T07:42:46.437Z,69.48
2018-06-27T07:45:21.105Z,70.05
2018-06-27T07:47:49.803Z,66.61
2018-06-27T07:50:18.525Z,72.93
2018-06-27T07:52:47.437Z,65.82
2018-06-27T07:55:16.424Z,63.42
2018-06-27T07:57:45.069Z,63.17
2018-06-27T08:00:13.968Z,63.86
2018-06-27T08:02:42.660Z,63.80
2018-06-27T08:05:11.528Z,61.16
2018-06-27T08:07:40.321Z,62.72
2018-06-27T08:10:09.136Z,60.49
2018-06-27T08:12:37.951Z,61.73
2018-06-27T08:15:07.237Z,62.90
2018-06-27T08:17:36.088Z,64.17
2018-06-27T08:20:05.022Z,63.45
2018-06-27T08:22:33.785Z,62.44
2018-06-27T08:25:02.680Z,62.28
2018-06-27T08:27:31.347Z,59.78
2018-06-27T08:29:59.979Z,58.20
2018-06-27T08:32:28.786Z,56.55
2018-06-27T08:34:57.600Z,56.95
2018-06-27T08:37:26.197Z,60.82
2018-06-27T08:39:55.082Z,59.02
2018-06-27T08:42:23.853Z,57.89
2018-06-27T08:44:52.660Z,55.33
2018-06-27T08:47:21.319Z,53.87
2018-06-27T08:49:50.175Z,54.29
2018-06-27T08:52:18.878Z,50.86
2018-06-27T08:54:47.782Z,49.30
2018-06-27T08:57:17.847Z,55.70
2018-06-27T08:59:47.422Z,50.65
2018-06-27T09:02:16.247Z,51.15
2018-06-27T09:04:45.099Z,52.27
2018-06-27T09:07:13.904Z,49.49
2018-06-27T09:09:42.992Z,52.94
2018-06-27T09:12:11.800Z,52.62
2018-06-27T09:14:40.395Z,50.48
2018-06-27T09:17:09.384Z,49.47
2018-06-27T09:19:37.965Z,49.11
2018-06-27T09:22:06.759Z,47.40
2018-06-27T09:24:35.520Z,46.77
2018-06-27T09:27:04.484Z,46.12
2018-06-27T09:29:33.126Z,45.70
2018-06-27T09:32:01.921Z,47.12
2018-06-27T09:34:30.527Z,47.87
2018-06-27T09:36:59.348Z,46.26
2018-06-27T09:39:28.109Z,46.86
2018-06-27T09:41:56.994Z,48.57
2018-06-27T09:44:25.752Z,45.91
2018-06-27T09:46:54.626Z,45.84
2018-06-27T09:49:23.379Z,45.74
2018-06-27T09:51:52.157Z,46.08
2018-06-27T09:54:21.064Z,43.78
2018-06-27T09:56:49.865Z,47.04
2018-06-27T09:59:18.658Z,48.34
2018-06-27T10:01:47.449Z,48.24
2018-06-27T10:04:16.276Z,47.95
2018-06-27T10:06:45.466Z,48.66
2018-06-27T10:09:14.296Z,46.17
2018-06-27T10:11:43.057Z,47.97
2018-06-27T10:14:12.022Z,46.18
2018-06-27T10:16:40.744Z,46.42
2018-06-27T10:19:09.567Z,45.83
2018-06-27T10:21:38.313Z,46.72
2018-06-27T10:24:07.095Z,45.78
2018-06-27T10:26:35.968Z,46.72
2018-06-27T10:29:05.024Z,45.31
2018-06-27T10:31:33.799Z,45.41
2018-06-27T10:34:02.404Z,45.50
2018-06-27T10:36:31.122Z,46.16
2018-06-27T10:38:59.896Z,45.49
2018-06-27T10:41:28.619Z,44.98
2018-06-27T10:43:57.591Z,45.64
2018-06-27T10:46:26.589Z,45.51
2018-06-27T10:48:55.390Z,45.42
2018-06-27T10:51:24.120Z,46.47
2018-06-27T10:53:52.876Z,46.41
2018-06-27T10:56:22.027Z,46.00
2018-06-27T10:58:50.739Z,44.96
2018-06-27T11:01:19.561Z,45.93
2018-06-27T11:03:48.649Z,44.11
2018-06-27T11:06:17.415Z,42.75
2018-06-27T11:08:46.312Z,41.11
2018-06-27T11:11:15.089Z,42.96
2018-06-27T11:13:44.120Z,40.79
2018-06-27T11:16:12.897Z,39.71
2018-06-27T11:18:41.636Z,39.56
2018-06-27T11:21:10.512Z,40.52
2018-06-27T11:23:39.230Z,40.64
2018-06-27T11:26:08.048Z,41.92
2018-06-27T11:28:36.788Z,42.29
2018-06-27T11:31:05.639Z,41.65
2018-06-27T11:33:34.437Z,39.80
2018-06-27T11:36:03.630Z,39.35
2018-06-27T11:38:32.397Z,40.53
2018-06-27T11:41:01.104Z,41.70
2018-06-27T11:43:29.866Z,41.88
2018-06-27T11:45:58.668Z,41.25
2018-06-27T11:48:27.459Z,39.51
2018-06-27T11:50:56.171Z,39.56
2018-06-27T11:53:25.060Z,39.88
2018-06-27T11:55:54.181Z,39.43
2018-06-27T11:58:23.040Z,40.24
2018-06-27T12:00:51.765Z,39.21
2018-06-27T12:03:20.387Z,38.26
2018-06-27T12:05:49.164Z,37.89
2018-06-27T12:08:17.930Z,38.72
2018-06-27T12:10:46.873Z,39.27
2018-06-27T12:13:15.640Z,38.39
2018-06-27T12:15:44.385Z,38.34
2018-06-27T12:18:13.172Z,38.55
2018-06-27T12:20:41.868Z,37.78
2018-06-27T12:23:10.671Z,36.76
2018-06-27T12:25:39.242Z,37.65
2018-06-27T12:28:08.165Z,35.48
2018-06-27T12:30:36.909Z,34.43
2018-06-27T12:33:05.695Z,34.73
2018-06-27T12:35:34.481Z,34.17
2018-06-27T12:38:03.272Z,34.46
2018-06-27T12:40:32.057Z,32.47
2018-06-27T12:43:00.799Z,33.19
2018-06-27T12:45:35.671Z,34.39
2018-06-27T12:48:04.600Z,33.57
2018-06-27T12:50:33.384Z,33.71
2018-06-27T12:53:02.154Z,33.93
2018-06-27T12:55:30.919Z,35.19
2018-06-27T12:57:59.640Z,34.01
2018-06-27T13:00:28.502Z,33.85
2018-06-27T13:02:57.307Z,33.21
2018-06-27T13:05:26.076Z,32.75
2018-06-27T13:07:54.813Z,33.13
2018-06-27T13:10:23.634Z,32.79
2018-06-27T13:12:52.417Z,33.39
2018-06-27T13:15:21.268Z,33.94
2018-06-27T13:17:50.036Z,35.07
2018-06-27T13:20:18.792Z,34.79
2018-06-27T13:22:47.583Z,33.64
2018-06-27T13:25:16.435Z,33.45
2018-06-27T13:27:45.216Z,34.63
2018-06-27T13:30:14.064Z,34.82
2018-06-27T13:32:43.116Z,33.84
2018-06-27T13:35:11.848Z,34.04
2018-06-27T13:37:40.671Z,33.91
2018-06-27T13:40:09.468Z,34.06
2018-06-27T13:42:38.235Z,33.55
2018-06-27T13:45:07.131Z,32.86
2018-06-27T13:47:35.949Z,32.24
2018-06-27T13:50:05.240Z,32.20
2018-06-27T13:52:34.060Z,32.27
2018-06-27T13:55:02.840Z,32.69
2018-06-27T13:57:31.668Z,33.98
2018-06-27T14:00:00.384Z,34.86
2018-06-27T14:02:29.228Z,33.52
2018-06-27T14:04:57.810Z,34.49
2018-06-27T14:07:26.479Z,34.74
2018-06-27T14:09:55.209Z,33.71
2018-06-27T14:12:23.998Z,31.73
2018-06-27T14:14:52.821Z,32.66
2018-06-27T14:17:21.607Z,32.83
2018-06-27T14:19:50.332Z,32.15
2018-06-27T14:22:18.961Z,33.22
2018-06-27T14:24:47.705Z,33.23
2018-06-27T14:27:16.582Z,32.76
2018-06-27T14:29:45.327Z,32.63
2018-06-27T14:32:14.173Z,32.31
2018-06-27T14:34:42.755Z,32.21
2018-06-27T14:37:11.503Z,31.42
2018-06-27T14:39:40.172Z,31.60
2018-06-27T14:42:08.941Z,32.02
2018-06-27T14:44:37.555Z,32.78
2018-06-27T14:47:06.471Z,34.26
2018-06-27T14:49:35.251Z,33.89
2018-06-27T14:52:03.998Z,33.36
2018-06-27T14:54:32.838Z,32.83
2018-06-27T14:57:01.608Z,33.04
2018-06-27T14:59:30.487Z,32.97
2018-06-27T15:01:59.272Z,34.48
2018-06-27T15:04:28.145Z,34.64
2018-06-27T15:06:56.778Z,34.07
2018-06-27T15:09:25.668Z,33.26
2018-06-27T15:11:54.414Z,33.33
2018-06-27T15:14:23.224Z,33.93
2018-06-27T15:16:52.202Z,32.75
2018-06-27T15:19:20.854Z,31.18
2018-06-27T15:21:49.758Z,30.33
2018-06-27T15:24:18.417Z,31.34
2018-06-27T15:26:47.197Z,31.07
2018-06-27T15:29:16.049Z,32.50
2018-06-27T15:31:44.664Z,32.73
2018-06-27T15:34:13.443Z,34.70
2018-06-27T15:36:42.256Z,34.81
2018-06-27T15:39:11.093Z,33.71
2018-06-27T15:41:39.959Z,32.58
2018-06-27T15:44:08.748Z,31.96
2018-06-27T15:46:37.535Z,31.59
2018-06-27T15:49:08.988Z,32.70
2018-06-27T15:51:38.027Z,33.33
2018-06-27T15:54:07.155Z,34.02
2018-06-27T15:56:36.028Z,34.29
2018-06-27T15:59:06.127Z,34.10
2018-06-27T16:01:35.103Z,33.70
2018-06-27T16:04:03.893Z,34.18
2018-06-27T16:06:32.735Z,33.07
2018-06-27T16:09:02.036Z,33.07
2018-06-27T16:11:30.914Z,32.69
2018-06-27T16:13:59.655Z,32.35
2018-06-27T16:16:28.506Z,32.20
2018-06-27T16:18:57.331Z,32.29
2018-06-27T16:21:26.204Z,32.50
2018-06-27T16:23:55.178Z,32.70
2018-06-27T16:26:24.093Z,32.87
2018-06-27T16:28:52.881Z,33.18
2018-06-27T16:31:21.530Z,33.26
2018-06-27T16:33:50.167Z,32.44
2018-06-27T16:36:18.951Z,33.34
2018-06-27T16:38:47.792Z,33.30
2018-06-27T16:41:16.826Z,33.79
2018-06-27T16:43:45.572Z,33.73
2018-06-27T16:46:14.450Z,34.10
2018-06-27T16:48:43.231Z,32.73
2018-06-27T16:51:12.147Z,33.63
2018-06-27T16:53:41.068Z,33.43
2018-06-27T16:56:09.923Z,33.06
2018-06-27T16:58:38.695Z,33.07
2018-06-27T17:01:07.578Z,32.25
2018-06-27T17:03:36.238Z,33.42
2018-06-27T17:06:05.214Z,33.66
2018-06-27T17:08:34.060Z,32.34
2018-06-27T17:11:02.903Z,32.73
2018-06-27T17:13:31.701Z,31.67
2018-06-27T17:16:00.508Z,32.04
2018-06-27T17:18:29.276Z,32.16
2018-06-27T17:20:57.925Z,33.91
2018-06-27T17:23:26.732Z,33.37
2018-06-27T17:25:55.455Z,33.91
2018-06-27T17:28:24.600Z,33.31
2018-06-27T17:30:53.840Z,33.23
2018-06-27T17:33:22.486Z,33.63
2018-06-27T17:35:51.659Z,33.63
2018-06-27T17:38:20.430Z,33.44
2018-06-27T17:40:49.209Z,34.06
2018-06-27T17:43:17.976Z,33.26
2018-06-27T17:45:52.855Z,33.40
2018-06-27T17:48:21.607Z,32.94
2018-06-27T17:50:50.457Z,33.23
2018-06-27T17:53:19.358Z,33.46
2018-06-27T17:55:48.242Z,34.14
2018-06-27T17:58:17.028Z,34.71
2018-06-27T18:00:45.945Z,34.69
2018-06-27T18:03:14.562Z,35.06
2018-06-27T18:05:43.430Z,35.51
2018-06-27T18:08:12.223Z,35.63
2018-06-27T18:10:41.068Z,34.92
2018-06-27T18:13:09.816Z,35.13
2018-06-27T18:15:38.950Z,35.45
2018-06-27T18:18:07.693Z,35.42
2018-06-27T18:20:36.643Z,35.19
2018-06-27T18:23:05.583Z,34.67
2018-06-27T18:25:34.349Z,34.89
2018-06-27T18:28:03.000Z,35.73
2018-06-27T18:30:31.897Z,35.83
2018-06-27T18:33:00.793Z,36.31
2018-06-27T18:35:29.712Z,36.00
2018-06-27T18:37:58.348Z,36.06
2018-06-27T18:40:27.109Z,36.56
2018-06-27T18:42:55.909Z,36.57
2018-06-27T18:45:24.658Z,36.19
2018-06-27T18:47:53.433Z,36.61
2018-06-27T18:50:23.093Z,36.57
2018-06-27T18:52:51.949Z,36.97
2018-06-27T18:55:20.761Z,37.09
2018-06-27T18:57:49.624Z,37.51
2018-06-27T19:00:18.492Z,37.44
2018-06-27T19:02:47.321Z,36.99
2018-06-27T19:05:16.109Z,37.82
2018-06-27T19:07:44.764Z,37.79
2018-06-27T19:10:13.797Z,37.79
2018-06-27T19:12:42.669Z,38.34
2018-06-27T19:15:11.709Z,37.94
2018-06-27T19:17:40.502Z,38.66
2018-06-27T19:20:10.129Z,38.99
2018-06-27T19:22:39.045Z,38.46
2018-06-27T19:25:07.842Z,39.22
2018-06-27T19:27:36.602Z,39.33
2018-06-27T19:30:05.999Z,39.36
2018-06-27T19:32:34.808Z,39.69
2018-06-27T19:35:04.036Z,40.28
2018-06-27T19:37:32.771Z,39.69
2018-06-27T19:40:01.546Z,39.78
2018-06-27T19:42:30.282Z,40.39
2018-06-27T19:44:59.092Z,40.59
2018-06-27T19:47:27.882Z,40.36
2018-06-27T19:49:56.668Z,40.89
2018-06-27T19:52:25.499Z,40.99
2018-06-27T19:54:54.264Z,41.87
2018-06-27T19:57:23.167Z,41.09
2018-06-27T19:59:51.997Z,42.08
2018-06-27T20:02:20.805Z,42.41
2018-06-27T20:04:49.544Z,42.30
2018-06-27T20:07:18.335Z,42.54
2018-06-27T20:09:47.115Z,42.03
2018-06-27T20:12:15.949Z,42.34
2018-06-27T20:14:44.837Z,43.13
2018-06-27T20:17:13.617Z,43.76
2018-06-27T20:19:42.359Z,44.40
2018-06-27T20:22:11.182Z,44.06
2018-06-27T20:24:40.167Z,44.08
2018-06-27T20:27:09.051Z,44.69
2018-06-27T20:29:38.083Z,44.94
2018-06-27T20:32:06.912Z,45.47
2018-06-27T20:34:35.638Z,45.82
2018-06-27T20:37:04.696Z,45.47
2018-06-27T20:39:33.480Z,45.96
2018-06-27T20:42:02.261Z,46.16
2018-06-27T20:44:31.026Z,46.64
2018-06-27T20:46:59.856Z,46.76
2018-06-27T20:49:28.784Z,48.14
2018-06-27T20:51:57.661Z,48.44
2018-06-27T20:54:26.274Z,49.36
2018-06-27T20:56:55.100Z,50.18
2018-06-27T20:59:23.820Z,49.79
2018-06-27T21:01:52.866Z,51.10
2018-06-27T21:04:21.835Z,51.56
2018-06-27T21:06:50.606Z,52.55
2018-06-27T21:09:19.234Z,52.70
2018-06-27T21:11:48.040Z,52.80
2018-06-27T21:14:16.856Z,53.20
2018-06-27T21:16:45.625Z,53.93
2018-06-27T21:19:14.419Z,54.29
2018-06-27T21:21:43.164Z,54.65
2018-06-27T21:24:11.915Z,55.30
2018-06-27T21:26:40.733Z,55.79
2018-06-27T21:29:09.801Z,56.91
2018-06-27T21:31:38.583Z,55.61
2018-06-27T21:34:07.355Z,57.23
2018-06-27T21:36:36.079Z,57.40
2018-06-27T21:39:08.129Z,57.48
2018-06-27T21:41:37.412Z,58.98
2018-06-27T21:44:06.547Z,58.48
2018-06-27T21:46:35.128Z,58.22
2018-06-27T21:49:03.936Z,59.42
2018-06-27T21:51:32.805Z,59.15
2018-06-27T21:54:01.539Z,60.09
2018-06-27T21:56:30.290Z,60.20
2018-06-27T21:58:58.910Z,60.54
2018-06-27T22:01:27.815Z,61.42
2018-06-27T22:03:56.622Z,62.07
2018-06-27T22:06:25.388Z,62.32
2018-06-27T22:08:54.112Z,61.59
2018-06-27T22:11:23.181Z,62.56
2018-06-27T22:13:51.900Z,63.00
2018-06-27T22:16:21.040Z,63.86
2018-06-27T22:18:49.807Z,63.05
2018-06-27T22:21:18.476Z,62.14
2018-06-27T22:23:47.213Z,62.72
2018-06-27T22:26:16.029Z,63.20
2018-06-27T22:28:44.820Z,63.92
2018-06-27T22:31:13.646Z,64.17
2018-06-27T22:33:42.405Z,63.98
2018-06-27T22:36:11.192Z,64.14
2018-06-27T22:38:39.924Z,64.37
2018-06-27T22:41:08.747Z,64.50
2018-06-27T22:43:37.472Z,65.43
2018-06-27T22:46:06.292Z,65.65
2018-06-27T22:48:34.865Z,66.75
2018-06-27T22:51:03.530Z,66.17
2018-06-27T22:53:32.401Z,66.92
2018-06-27T22:56:01.194Z,67.74
2018-06-27T22:58:29.948Z,67.38
2018-06-27T23:00:58.720Z,67.82
2018-06-27T23:03:27.355Z,68.65
2018-06-27T23:05:56.235Z,68.01
2018-06-27T23:08:24.960Z,68.94
2018-06-27T23:10:53.739Z,69.23
2018-06-27T23:13:22.569Z,68.88
2018-06-27T23:15:51.376Z,69.63
2018-06-27T23:18:20.232Z,69.34
2018-06-27T23:20:48.958Z,69.37
2018-06-27T23:23:17.725Z,68.98
2018-06-27T23:25:46.456Z,69.54
2018-06-27T23:28:15.222Z,70.10
2018-06-27T23:30:44.020Z,70.13
2018-06-27T23:33:12.772Z,70.36
2018-06-27T23:35:41.343Z,70.91
2018-06-27T23:38:10.143Z,70.84
2018-06-27T23:40:38.855Z,71.53
2018-06-27T23:43:07.693Z,71.31
2018-06-27T23:45:42.493Z,71.65
2018-06-27T23:48:11.284Z,71.86
2018-06-27T23:50:40.043Z,71.80
2018-06-27T23:53:08.932Z,72.00
2018-06-27T23:55:37.826Z,71.81
2018-06-27T23:58:06.888Z,72.20
